createdAt,value
2022-11-15T00:01:17.904Z,100508.84
2022-11-15T00:03:46.188Z,100509.06
2022-11-15T00:06:13.999Z,100513.59
2022-11-15T00:08:41.927Z,100505.50
2022-11-15T00:11:13.706Z,100510.53
2022-11-15T00:13:41.748Z,100510.34
2022-11-15T00:16:11.399Z,100517.13
2022-11-15T00:18:39.606Z,100517.50
2022-11-15T00:21:09.729Z,100516.09
2022-11-15T00:23:38.121Z,100520.28
2022-11-15T00:26:06.198Z,100503.56
2022-11-15T00:28:34.511Z,100493.03
2022-11-15T00:31:03.669Z,100503.63
2022-11-15T00:33:33.457Z,100500.94
2022-11-15T00:36:03.271Z,100500.75
2022-11-15T00:38:33.859Z,100501.97
2022-11-15T00:41:06.415Z,100503.63
2022-11-15T00:43:36.972Z,100502.81
2022-11-15T00:46:04.907Z,100507.00
2022-11-15T00:48:34.104Z,100509.50
2022-11-15T00:51:01.762Z,100502.25
2022-11-15T00:53:29.910Z,100498.31
2022-11-15T00:55:58.074Z,100496.28
2022-11-15T00:58:25.837Z,100489.84
2022-11-15T01:00:53.632Z,100485.94
2022-11-15T01:03:21.367Z,100491.00
2022-11-15T01:05:50.380Z,100490.63
2022-11-15T01:08:18.740Z,100479.63
2022-11-15T01:10:46.544Z,100483.00
2022-11-15T01:13:14.345Z,100476.75
2022-11-15T01:15:42.434Z,100474.03
2022-11-15T01:18:10.263Z,100468.91
2022-11-15T01:20:41.688Z,100468.09
2022-11-15T01:23:11.254Z,100464.38
2022-11-15T01:25:39.027Z,100470.41
2022-11-15T01:28:06.838Z,100461.94
2022-11-15T01:30:34.657Z,100458.66
2022-11-15T01:33:02.410Z,100456.44
2022-11-15T01:35:30.157Z,100450.44
2022-11-15T01:37:58.388Z,100449.22
2022-11-15T01:40:27.398Z,100438.06
2022-11-15T01:42:55.108Z,100436.84
2022-11-15T01:45:23.116Z,100436.00
2022-11-15T01:47:54.413Z,100434.97
2022-11-15T01:50:25.749Z,100439.34
2022-11-15T01:52:53.717Z,100424.16
2022-11-15T01:55:24.970Z,100431.44
2022-11-15T01:57:59.114Z,100431.03
2022-11-15T02:00:26.841Z,100421.94
2022-11-15T02:02:54.918Z,100427.13
2022-11-15T02:05:24.227Z,100437.53
2022-11-15T02:07:52.188Z,100431.31
2022-11-15T02:10:22.600Z,100435.50
2022-11-15T02:12:51.308Z,100429.88
2022-11-15T02:15:20.773Z,100420.56
2022-11-15T02:18:06.813Z,100414.16
2022-11-15T02:20:54.476Z,100416.66
2022-11-15T02:23:43.476Z,100417.09
2022-11-15T02:26:30.963Z,100409.63
2022-11-15T02:29:05.487Z,100410.28
2022-11-15T02:31:42.244Z,100400.09
2022-11-15T02:34:18.906Z,100405.31
2022-11-15T02:36:57.732Z,100399.72
2022-11-15T02:39:33.657Z,100393.47
2022-11-15T02:42:04.963Z,100398.25
2022-11-15T02:44:36.161Z,100393.88
2022-11-15T02:47:14.585Z,100391.78
2022-11-15T02:49:47.343Z,100387.88
2022-11-15T02:52:18.096Z,100385.81
2022-11-15T02:54:55.738Z,100388.31
2022-11-15T02:57:38.556Z,100383.56
2022-11-15T03:00:11.017Z,100368.19
2022-11-15T03:03:03.180Z,100366.31
2022-11-15T03:05:39.281Z,100370.69
2022-11-15T03:08:12.377Z,100381.50
2022-11-15T03:10:47.159Z,100381.69
2022-11-15T03:13:24.130Z,100375.84
2022-11-15T03:15:59.776Z,100374.16
2022-11-15T03:18:34.413Z,100363.56
2022-11-15T03:21:05.228Z,100371.47
2022-11-15T03:23:34.797Z,100361.50
2022-11-15T03:26:03.550Z,100361.13
2022-11-15T03:28:38.334Z,100356.97
2022-11-15T03:31:28.111Z,100360.75
2022-11-15T03:34:00.003Z,100367.59
2022-11-15T03:36:28.881Z,100363.03
2022-11-15T03:39:01.973Z,100366.34
2022-11-15T03:41:37.702Z,100370.38
2022-11-15T03:44:15.920Z,100367.44
2022-11-15T03:46:49.872Z,100368.28
2022-11-15T03:49:24.630Z,100374.13
2022-11-15T03:51:52.697Z,100372.91
2022-11-15T03:54:20.444Z,100371.03
2022-11-15T03:56:48.270Z,100369.78
2022-11-15T03:59:16.014Z,100373.75
2022-11-15T04:01:43.683Z,100374.63
2022-11-15T04:04:11.491Z,100376.25
2022-11-15T04:06:40.840Z,100376.72
2022-11-15T04:09:08.788Z,100367.56
2022-11-15T04:11:36.471Z,100362.16
2022-11-15T04:14:04.277Z,100351.97
2022-11-15T04:16:31.945Z,100352.84
2022-11-15T04:19:17.431Z,100359.06
2022-11-15T04:22:03.956Z,100356.34
2022-11-15T04:24:31.644Z,100350.94
2022-11-15T04:26:59.558Z,100353.84
2022-11-15T04:29:36.505Z,100341.16
2022-11-15T04:32:05.557Z,100355.34
2022-11-15T04:34:34.034Z,100354.31
2022-11-15T04:37:16.083Z,100361.38
2022-11-15T04:39:45.454Z,100353.91
2022-11-15T04:42:13.285Z,100361.78
2022-11-15T04:44:40.975Z,100362.66
2022-11-15T04:47:08.733Z,100356.84
2022-11-15T04:49:36.472Z,100361.00
2022-11-15T04:52:06.066Z,100365.78
2022-11-15T04:54:33.745Z,100374.56
2022-11-15T04:57:01.395Z,100376.22
2022-11-15T04:59:29.161Z,100375.81
2022-11-15T05:01:56.888Z,100380.63
2022-11-15T05:04:23.624Z,100377.72
2022-11-15T05:06:53.119Z,100380.03
2022-11-15T05:09:23.021Z,100380.47
2022-11-15T05:11:50.767Z,100385.66
2022-11-15T05:14:18.644Z,100389.00
2022-11-15T05:16:46.339Z,100384.22
2022-11-15T05:19:14.040Z,100385.91
2022-11-15T05:21:41.814Z,100389.25
2022-11-15T05:24:11.926Z,100386.34
2022-11-15T05:26:41.044Z,100386.13
2022-11-15T05:29:11.314Z,100396.75
2022-11-15T05:31:42.087Z,100383.88
2022-11-15T05:34:09.845Z,100388.03
2022-11-15T05:36:39.587Z,100388.22
2022-11-15T05:39:09.460Z,100392.38
2022-11-15T05:41:43.406Z,100384.28
2022-11-15T05:44:15.458Z,100386.97
2022-11-15T05:46:44.283Z,100385.94
2022-11-15T05:49:14.802Z,100380.34
2022-11-15T05:51:43.984Z,100381.19
2022-11-15T05:54:13.033Z,100375.78
2022-11-15T05:56:42.307Z,100377.41
2022-11-15T05:59:11.225Z,100368.72
2022-11-15T06:01:40.266Z,100376.63
2022-11-15T06:04:08.095Z,100369.59
2022-11-15T06:06:36.096Z,100367.13
2022-11-15T06:09:05.584Z,100369.63
2022-11-15T06:11:33.557Z,100368.38
2022-11-15T06:14:02.915Z,100371.72
2022-11-15T06:16:30.646Z,100375.88
2022-11-15T06:18:58.487Z,100380.84
2022-11-15T06:21:28.753Z,100377.31
2022-11-15T06:23:56.670Z,100372.94
2022-11-15T06:26:24.573Z,100379.38
2022-11-15T06:28:52.255Z,100375.41
2022-11-15T06:31:21.238Z,100377.88
2022-11-15T06:33:50.357Z,100376.19
2022-11-15T06:36:18.375Z,100367.69
2022-11-15T06:38:46.915Z,100373.06
2022-11-15T06:41:16.012Z,100381.59
2022-11-15T06:43:44.095Z,100372.00
2022-11-15T06:46:13.150Z,100385.94
2022-11-15T06:48:42.301Z,100381.97
2022-11-15T06:51:10.021Z,100391.56
2022-11-15T06:53:38.138Z,100388.41
2022-11-15T06:56:08.086Z,100387.81
2022-11-15T06:58:36.271Z,100388.63
2022-11-15T07:01:06.549Z,100388.63
2022-11-15T07:03:36.359Z,100393.22
2022-11-15T07:06:07.679Z,100389.03
2022-11-15T07:08:36.744Z,100400.44
2022-11-15T07:11:07.169Z,100402.53
2022-11-15T07:13:36.089Z,100403.97
2022-11-15T07:16:04.907Z,100409.97
2022-11-15T07:18:32.867Z,100406.84
2022-11-15T07:21:03.572Z,100403.31
2022-11-15T07:23:33.219Z,100401.66
2022-11-15T07:26:01.332Z,100400.63
2022-11-15T07:28:29.743Z,100403.13
2022-11-15T07:30:57.938Z,100407.72
2022-11-15T07:33:25.700Z,100401.88
2022-11-15T07:35:53.401Z,100402.34
2022-11-15T07:38:21.626Z,100407.31
2022-11-15T07:40:58.454Z,100406.50
2022-11-15T07:43:26.806Z,100405.66
2022-11-15T07:45:58.785Z,100410.69
2022-11-15T07:48:35.613Z,100400.47
2022-11-15T07:51:14.429Z,100394.84
2022-11-15T07:53:42.584Z,100394.44
2022-11-15T07:56:11.976Z,100403.38
2022-11-15T07:58:39.757Z,100393.81
2022-11-15T08:01:08.800Z,100397.41
2022-11-15T08:03:37.604Z,100401.16
2022-11-15T08:06:05.921Z,100400.13
2022-11-15T08:08:33.588Z,100397.41
2022-11-15T08:11:01.824Z,100393.06
2022-11-15T08:13:31.130Z,100400.53
2022-11-15T08:16:02.270Z,100391.00
2022-11-15T08:18:29.979Z,100389.78
2022-11-15T08:21:01.344Z,100393.13
2022-11-15T08:23:29.972Z,100388.38
2022-11-15T08:26:02.663Z,100385.47
2022-11-15T08:28:32.056Z,100391.72
2022-11-15T08:30:59.846Z,100394.25
2022-11-15T08:33:28.723Z,100400.72
2022-11-15T08:35:58.323Z,100389.88
2022-11-15T08:38:26.164Z,100385.50
2022-11-15T08:40:55.182Z,100395.72
2022-11-15T08:43:25.478Z,100385.50
2022-11-15T08:45:57.594Z,100391.56
2022-11-15T08:48:25.289Z,100389.06
2022-11-15T08:50:55.929Z,100385.94
2022-11-15T08:53:24.397Z,100383.00
2022-11-15T08:55:52.117Z,100384.06
2022-11-15T08:58:19.834Z,100384.06
2022-11-15T09:00:47.493Z,100381.56
2022-11-15T09:03:16.628Z,100381.34
2022-11-15T09:05:44.404Z,100380.50
2022-11-15T09:08:32.932Z,100386.31
2022-11-15T09:11:00.207Z,100392.38
2022-11-15T09:13:27.930Z,100391.31
2022-11-15T09:15:59.382Z,100380.25
2022-11-15T09:18:28.919Z,100379.81
2022-11-15T09:20:58.492Z,100382.94
2022-11-15T09:23:27.260Z,100383.75
2022-11-15T09:26:01.326Z,100373.97
2022-11-15T09:28:29.611Z,100378.28
2022-11-15T09:30:59.865Z,100373.94
2022-11-15T09:33:30.226Z,100364.09
2022-11-15T09:36:02.607Z,100369.97
2022-11-15T09:38:30.785Z,100371.78
2022-11-15T09:41:19.863Z,100373.91
2022-11-15T09:43:59.804Z,100373.47
2022-11-15T09:46:39.788Z,100374.09
2022-11-15T09:49:11.418Z,100376.81
2022-11-15T09:51:47.396Z,100376.59
2022-11-15T09:57:22.321Z,100379.72
2022-11-15T10:00:44.756Z,100373.84
2022-11-15T10:03:05.291Z,100377.34
2022-11-15T10:05:39.651Z,100369.41
2022-11-15T10:08:22.921Z,100374.78
2022-11-15T10:11:15.834Z,100375.19
2022-11-15T10:13:45.230Z,100370.19
2022-11-15T10:16:28.150Z,100355.94
2022-11-15T10:19:05.668Z,100349.91
2022-11-15T10:21:47.123Z,100348.25
2022-11-15T10:24:20.615Z,100347.19
2022-11-15T10:26:49.628Z,100347.59
2022-11-15T10:29:26.420Z,100345.88
2022-11-15T10:31:55.084Z,100351.09
2022-11-15T10:34:24.531Z,100351.72
2022-11-15T10:36:58.799Z,100355.25
2022-11-15T10:39:27.176Z,100349.81
2022-11-15T10:41:55.492Z,100339.56
2022-11-15T10:44:28.758Z,100337.00
2022-11-15T10:47:23.474Z,100333.66
2022-11-15T10:50:00.157Z,100326.31
2022-11-15T10:52:31.942Z,100323.19
2022-11-15T10:55:05.605Z,100327.34
2022-11-15T10:57:36.077Z,100319.56
2022-11-15T11:00:09.295Z,100321.47
2022-11-15T11:02:40.188Z,100321.88
2022-11-15T11:05:27.634Z,100319.75
2022-11-15T11:08:00.534Z,100314.31
2022-11-15T11:13:23.001Z,100312.53
2022-11-15T11:15:57.120Z,100315.69
2022-11-15T11:18:30.039Z,100314.66
2022-11-15T11:21:03.952Z,100312.31
2022-11-15T11:23:47.885Z,100294.97
2022-11-15T11:26:34.997Z,100287.25
2022-11-15T11:29:17.710Z,100285.59
2022-11-15T11:31:56.605Z,100287.88
2022-11-15T11:34:43.760Z,100286.00
2022-11-15T11:37:19.709Z,100288.47
2022-11-15T11:40:02.969Z,100285.94
2022-11-15T11:42:42.927Z,100281.94
2022-11-15T11:45:20.553Z,100280.66
2022-11-15T11:47:51.223Z,100281.22
2022-11-15T11:50:21.855Z,100281.75
2022-11-15T11:53:03.662Z,100281.09
2022-11-15T11:55:37.383Z,100275.59
2022-11-15T11:58:11.937Z,100275.59
2022-11-15T12:00:43.790Z,100280.41
2022-11-15T12:03:16.052Z,100265.28
2022-11-15T12:05:47.269Z,100274.78
2022-11-15T12:08:27.773Z,100270.59
2022-11-15T12:11:09.131Z,100259.25
2022-11-15T12:13:38.739Z,100262.84
2022-11-15T12:16:13.491Z,100265.13
2022-11-15T12:18:45.567Z,100257.56
2022-11-15T12:21:25.399Z,100253.19
2022-11-15T12:24:01.120Z,100247.50
2022-11-15T12:26:36.360Z,100250.94
2022-11-15T12:29:12.300Z,100255.84
2022-11-15T12:31:44.571Z,100255.69
2022-11-15T12:34:33.126Z,100251.72
2022-11-15T12:37:00.894Z,100242.53
2022-11-15T12:40:02.468Z,100246.75
2022-11-15T12:42:43.437Z,100252.81
2022-11-15T12:45:28.419Z,100234.38
2022-11-15T12:48:13.732Z,100232.66
2022-11-15T12:50:59.053Z,100232.66
2022-11-15T12:53:31.501Z,100225.78
2022-11-15T12:56:21.655Z,100219.72
2022-11-15T12:58:53.445Z,100217.63
2022-11-15T13:01:58.426Z,100222.00
2022-11-15T13:04:29.138Z,100223.69
2022-11-15T13:06:59.411Z,100220.13
2022-11-15T13:09:54.463Z,100212.19
2022-11-15T13:12:53.125Z,100200.69
2022-11-15T13:15:43.123Z,100193.81
2022-11-15T13:18:32.584Z,100186.13
2022-11-15T13:21:02.936Z,100187.41
2022-11-15T13:23:31.234Z,100185.97
2022-11-15T13:26:12.341Z,100181.84
2022-11-15T13:28:46.322Z,100185.59
2022-11-15T13:31:31.809Z,100185.13
2022-11-15T13:34:03.060Z,100177.81
2022-11-15T13:36:34.025Z,100171.53
2022-11-15T13:39:04.148Z,100179.69
2022-11-15T13:41:34.257Z,100175.53
2022-11-15T13:44:03.647Z,100165.97
2022-11-15T13:46:34.658Z,100164.91
2022-11-15T13:49:04.331Z,100152.97
2022-11-15T13:51:39.043Z,100158.88
2022-11-15T13:54:21.562Z,100156.75
2022-11-15T13:56:53.883Z,100152.59
2022-11-15T13:59:26.745Z,100148.22
2022-11-15T14:01:57.271Z,100154.72
2022-11-15T14:04:30.605Z,100156.38
2022-11-15T14:07:01.022Z,100153.06
2022-11-15T14:09:36.852Z,100144.09
2022-11-15T14:12:25.152Z,100139.72
2022-11-15T14:14:53.294Z,100141.81
2022-11-15T14:17:34.646Z,100141.00
2022-11-15T14:20:02.980Z,100133.28
2022-11-15T14:22:32.012Z,100141.44
2022-11-15T14:25:17.241Z,100140.03
2022-11-15T14:27:46.581Z,100138.38
2022-11-15T14:30:16.670Z,100140.22
2022-11-15T14:32:48.714Z,100136.69
2022-11-15T14:35:19.056Z,100141.06
2022-11-15T14:37:47.743Z,100134.78
2022-11-15T14:40:17.230Z,100126.06
2022-11-15T14:42:47.170Z,100129.81
2022-11-15T14:45:18.068Z,100118.13
2022-11-15T14:47:47.371Z,100125.22
2022-11-15T14:50:16.926Z,100124.41
2022-11-15T14:52:44.721Z,100122.72
2022-11-15T14:55:19.953Z,100126.16
2022-11-15T14:57:47.993Z,100121.53
2022-11-15T15:00:16.576Z,100115.28
2022-11-15T15:02:45.889Z,100111.50
2022-11-15T15:05:18.533Z,100112.56
2022-11-15T15:07:46.699Z,100107.34
2022-11-15T15:10:39.034Z,100110.88
2022-11-15T15:13:03.230Z,100110.06
2022-11-15T15:15:36.366Z,100109.00
2022-11-15T15:18:05.493Z,100109.84
2022-11-15T15:20:34.646Z,100103.56
2022-11-15T15:23:02.399Z,100112.16
2022-11-15T15:25:32.842Z,100108.41
2022-11-15T15:28:01.297Z,100108.19
2022-11-15T15:30:31.214Z,100107.13
2022-11-15T15:32:59.314Z,100098.13
2022-11-15T15:35:32.022Z,100100.84
2022-11-15T15:38:01.428Z,100088.34
2022-11-15T15:40:31.001Z,100087.25
2022-11-15T15:42:59.043Z,100075.34
2022-11-15T15:45:28.036Z,100073.69
2022-11-15T15:47:56.151Z,100068.03
2022-11-15T15:50:26.562Z,100065.31
2022-11-15T15:52:57.165Z,100065.09
2022-11-15T15:55:27.235Z,100064.84
2022-11-15T15:57:55.588Z,100057.53
2022-11-15T16:00:25.657Z,100055.84
2022-11-15T16:02:54.420Z,100060.47
2022-11-15T16:05:22.900Z,100058.81
2022-11-15T16:07:50.854Z,100065.09
2022-11-15T16:10:22.721Z,100064.25
2022-11-15T16:12:51.832Z,100069.66
2022-11-15T16:15:20.105Z,100070.53
2022-11-15T16:17:51.668Z,100063.66
2022-11-15T16:20:33.111Z,100054.66
2022-11-15T16:23:07.590Z,100057.59
2022-11-15T16:25:42.094Z,100057.03
2022-11-15T16:28:19.133Z,100046.59
2022-11-15T16:30:49.009Z,100041.16
2022-11-15T16:33:21.140Z,100042.44
2022-11-15T16:35:49.306Z,100032.66
2022-11-15T16:38:19.266Z,100037.25
2022-11-15T16:40:47.091Z,100034.78
2022-11-15T16:43:16.466Z,100028.53
2022-11-15T16:45:44.260Z,100025.19
2022-11-15T16:48:23.604Z,100027.91
2022-11-15T16:50:51.659Z,100030.63
2022-11-15T16:53:20.052Z,100030.63
2022-11-15T16:55:48.357Z,100024.00
2022-11-15T16:58:17.575Z,100022.19
2022-11-15T17:00:46.199Z,100027.59
2022-11-15T17:03:14.210Z,100029.50
2022-11-15T17:05:42.011Z,100028.88
2022-11-15T17:08:09.731Z,100023.94
2022-11-15T17:10:40.783Z,100024.16
2022-11-15T17:13:11.619Z,100020.81
2022-11-15T17:15:41.186Z,100015.56
2022-11-15T17:18:14.828Z,100020.75
2022-11-15T17:20:46.054Z,100017.78
2022-11-15T17:23:15.588Z,100014.03
2022-11-15T17:25:43.612Z,100022.94
2022-11-15T17:28:12.314Z,100017.03
2022-11-15T17:30:44.157Z,100012.31
2022-11-15T17:33:12.133Z,100016.22
2022-11-15T17:35:39.808Z,100011.59
2022-11-15T17:38:08.174Z,100002.19
2022-11-15T17:40:35.849Z,100000.97
2022-11-15T17:43:03.566Z,100005.31
2022-11-15T17:45:31.234Z,100000.78
2022-11-15T17:48:00.298Z,100004.53
2022-11-15T17:50:28.237Z,100008.31
2022-11-15T17:52:57.238Z,100002.88
2022-11-15T17:55:24.943Z,100003.19
2022-11-15T17:57:52.643Z,100001.09
2022-11-15T18:00:21.652Z,100000.31
2022-11-15T18:02:49.436Z,100001.41
2022-11-15T18:05:18.440Z,99990.06
2022-11-15T18:07:46.158Z,99993.84
2022-11-15T18:10:13.893Z,99992.19
2022-11-15T18:12:41.593Z,99990.97
2022-11-15T18:15:09.997Z,99993.09
2022-11-15T18:17:38.380Z,99986.31
2022-11-15T18:20:07.605Z,99984.28
2022-11-15T18:22:36.769Z,99989.47
2022-11-15T18:25:04.896Z,99984.66
2022-11-15T18:27:33.216Z,99976.75
2022-11-15T18:30:00.883Z,99973.03
2022-11-15T18:32:28.891Z,99972.59
2022-11-15T18:34:56.620Z,99962.88
2022-11-15T18:37:24.340Z,99964.91
2022-11-15T18:42:41.505Z,99958.88
2022-11-15T18:45:10.514Z,99957.69
2022-11-15T18:47:38.577Z,99954.50
2022-11-15T18:50:07.001Z,99959.34
2022-11-15T18:52:34.701Z,99952.03
2022-11-15T18:55:04.269Z,99950.59
2022-11-15T18:57:31.971Z,99953.06
2022-11-15T18:59:59.683Z,99954.50
2022-11-15T19:02:27.899Z,99953.06
2022-11-15T19:04:55.700Z,99943.66
2022-11-15T19:07:23.652Z,99944.69
2022-11-15T19:09:51.530Z,99938.22
2022-11-15T19:12:20.726Z,99940.94
2022-11-15T19:14:48.863Z,99941.97
2022-11-15T19:17:16.942Z,99939.03
2022-11-15T19:19:44.868Z,99935.50
2022-11-15T19:22:12.725Z,99930.09
2022-11-15T19:24:40.940Z,99934.47
2022-11-15T19:27:09.279Z,99926.63
2022-11-15T19:29:40.745Z,99931.38
2022-11-15T19:32:08.997Z,99935.75
2022-11-15T19:34:37.220Z,99927.22
2022-11-15T19:37:05.291Z,99926.41
2022-11-15T19:39:36.974Z,99921.56
2022-11-15T19:42:07.469Z,99919.94
2022-11-15T19:44:35.770Z,99918.03
2022-11-15T19:47:06.685Z,99923.22
2022-11-15T19:49:34.550Z,99913.81
2022-11-15T19:52:02.248Z,99914.84
2022-11-15T19:54:33.760Z,99911.91
2022-11-15T19:57:01.692Z,99914.41
2022-11-15T19:59:29.457Z,99908.16
2022-11-15T20:01:57.360Z,99904.63
2022-11-15T20:04:26.595Z,99904.63
2022-11-15T20:06:54.355Z,99903.56
2022-11-15T20:09:22.109Z,99906.72
2022-11-15T20:11:50.144Z,99902.94
2022-11-15T20:14:18.267Z,99899.19
2022-11-15T20:16:48.960Z,99900.75
2022-11-15T20:19:19.170Z,99892.31
2022-11-15T20:21:48.258Z,99894.78
2022-11-15T20:24:16.110Z,99888.78
2022-11-15T20:26:44.023Z,99890.50
2022-11-15T20:29:12.308Z,99896.63
2022-11-15T20:31:40.431Z,99900.63
2022-11-15T20:34:08.381Z,99890.09
2022-11-15T20:36:36.195Z,99888.84
2022-11-15T20:39:05.547Z,99899.13
2022-11-15T20:41:33.274Z,99887.31
2022-11-15T20:44:03.144Z,99890.97
2022-11-15T20:46:31.024Z,99890.75
2022-11-15T20:48:59.195Z,99887.22
2022-11-15T20:51:27.158Z,99881.31
2022-11-15T20:53:55.064Z,99879.44
2022-11-15T20:56:24.762Z,99876.88
2022-11-15T20:58:53.368Z,99882.16
2022-11-15T21:01:23.902Z,99876.50
2022-11-15T21:03:52.998Z,99874.00
2022-11-15T21:06:21.222Z,99871.28
2022-11-15T21:09:03.457Z,99873.34
2022-11-15T21:11:50.184Z,99873.56
2022-11-15T21:14:18.403Z,99877.94
2022-11-15T21:16:46.385Z,99870.84
2022-11-15T21:19:14.078Z,99865.19
2022-11-15T21:21:41.842Z,99866.00
2022-11-15T21:24:10.897Z,99856.81
2022-11-15T21:26:42.499Z,99856.81
2022-11-15T21:29:10.204Z,99850.66
2022-11-15T21:31:38.152Z,99848.78
2022-11-15T21:34:07.272Z,99854.81
2022-11-15T21:36:34.995Z,99851.72
2022-11-15T21:39:02.955Z,99848.63
2022-11-15T21:41:31.092Z,99850.06
2022-11-15T21:44:01.133Z,99844.63
2022-11-15T21:46:30.094Z,99842.38
2022-11-15T21:48:59.031Z,99833.63
2022-11-15T21:51:27.349Z,99840.94
2022-11-15T21:53:56.705Z,99834.69
2022-11-15T21:56:25.540Z,99831.75
2022-11-15T21:58:54.293Z,99831.06
2022-11-15T22:01:42.726Z,99825.66
2022-11-15T22:04:10.561Z,99830.44
2022-11-15T22:06:39.027Z,99834.09
2022-11-15T22:09:07.200Z,99826.53
2022-11-15T22:11:35.668Z,99823.84
2022-11-15T22:14:03.931Z,99833.16
2022-11-15T22:16:33.912Z,99821.72
2022-11-15T22:19:02.347Z,99816.31
2022-11-15T22:21:30.361Z,99813.13
2022-11-15T22:23:58.484Z,99811.47
2022-11-15T22:26:26.362Z,99801.22
2022-11-15T22:28:54.157Z,99808.31
2022-11-15T22:31:22.014Z,99795.56
2022-11-15T22:33:51.326Z,99790.22
2022-11-15T22:36:19.077Z,99788.56
2022-11-15T22:38:46.860Z,99790.59
2022-11-15T22:41:14.621Z,99782.72
2022-11-15T22:43:42.705Z,99792.28
2022-11-15T22:46:11.221Z,99794.38
2022-11-15T22:48:39.768Z,99784.34
2022-11-15T22:51:10.893Z,99782.22
2022-11-15T22:53:38.754Z,99780.00
2022-11-15T22:56:07.146Z,99780.56
2022-11-15T22:58:36.063Z,99776.28
2022-11-15T23:01:06.090Z,99778.81
2022-11-15T23:03:34.942Z,99775.47
2022-11-15T23:06:04.089Z,99766.53
2022-11-15T23:08:33.581Z,99764.00
2022-11-15T23:11:19.945Z,99760.69
2022-11-15T23:13:50.263Z,99756.97
2022-11-15T23:16:25.514Z,99755.28
2022-11-15T23:18:54.974Z,99763.25
2022-11-15T23:21:41.877Z,99761.75
2022-11-15T23:24:12.816Z,99758.59
2022-11-15T23:26:41.604Z,99754.81
2022-11-15T23:29:12.121Z,99754.66
2022-11-15T23:32:01.885Z,99740.38
2022-11-15T23:34:31.711Z,99737.34
2022-11-15T23:36:59.945Z,99731.78
2022-11-15T23:39:29.111Z,99724.09
2022-11-15T23:41:57.346Z,99725.25
2022-11-15T23:44:25.639Z,99723.66
2022-11-15T23:46:54.296Z,99726.38
2022-11-15T23:49:22.572Z,99718.88
2022-11-15T23:51:50.625Z,99722.84
2022-11-15T23:54:18.566Z,99710.72
2022-11-15T23:56:47.869Z,99713.06
2022-11-15T23:59:15.919Z,99710.81
